createdAt,value
2019-05-29T00:00:33.685Z,1.67
2019-05-29T00:03:02.539Z,1.90
2019-05-29T00:05:30.963Z,2.17
2019-05-29T00:07:59.394Z,2.10
2019-05-29T00:10:27.826Z,1.90
2019-05-29T00:12:56.249Z,1.93
2019-05-29T00:15:24.686Z,2.07
2019-05-29T00:17:53.103Z,2.10
2019-05-29T00:20:21.536Z,2.30
2019-05-29T00:22:49.946Z,2.00
2019-05-29T00:25:18.868Z,2.00
2019-05-29T00:27:47.333Z,2.73
2019-05-29T00:30:16.965Z,2.40
2019-05-29T00:32:46.166Z,2.00
2019-05-29T00:35:14.757Z,2.60
2019-05-29T00:37:43.211Z,2.73
2019-05-29T00:40:12.998Z,2.30
2019-05-29T00:42:41.983Z,2.27
2019-05-29T00:45:11.482Z,2.23
2019-05-29T00:47:40.162Z,2.23
2019-05-29T00:50:09.896Z,2.60
2019-05-29T00:52:38.517Z,1.83
2019-05-29T00:55:08.576Z,2.30
2019-05-29T00:57:37.339Z,2.50
2019-05-29T01:00:07.005Z,2.73
2019-05-29T01:02:35.426Z,2.60
2019-05-29T01:05:07.608Z,2.60
2019-05-29T01:07:36.020Z,2.30
2019-05-29T01:10:07.096Z,2.40
2019-05-29T01:12:35.516Z,2.70
2019-05-29T01:15:05.840Z,2.37
2019-05-29T01:17:34.264Z,2.10
2019-05-29T01:20:02.749Z,2.40
2019-05-29T01:22:31.249Z,1.83
2019-05-29T01:24:59.696Z,2.30
2019-05-29T01:27:28.106Z,2.33
2019-05-29T01:29:56.612Z,2.60
2019-05-29T01:32:25.033Z,2.37
2019-05-29T01:34:53.452Z,2.53
2019-05-29T01:37:22.293Z,2.83
2019-05-29T01:39:50.965Z,2.57
2019-05-29T01:42:19.497Z,2.30
2019-05-29T01:44:48.172Z,2.67
2019-05-29T01:47:17.406Z,2.87
2019-05-29T01:49:45.933Z,2.63
2019-05-29T01:52:15.497Z,2.83
2019-05-29T01:54:44.149Z,3.00
2019-05-29T01:57:12.557Z,2.80
2019-05-29T01:59:41.004Z,2.57
2019-05-29T02:02:09.791Z,3.13
2019-05-29T02:04:38.189Z,3.27
2019-05-29T02:07:06.689Z,3.30
2019-05-29T02:09:35.113Z,2.60
2019-05-29T02:12:03.658Z,2.83
2019-05-29T02:14:32.091Z,2.83
2019-05-29T02:17:00.486Z,3.20
2019-05-29T02:19:28.925Z,2.73
2019-05-29T02:21:57.342Z,3.10
2019-05-29T02:24:25.763Z,2.70
2019-05-29T02:26:54.182Z,3.20
2019-05-29T02:29:23.016Z,3.27
2019-05-29T02:31:51.478Z,3.03
2019-05-29T02:34:20.158Z,3.47
2019-05-29T02:36:49.335Z,3.23
2019-05-29T02:39:18.705Z,2.73
2019-05-29T02:41:47.955Z,3.20
2019-05-29T02:44:16.368Z,3.13
2019-05-29T02:46:44.859Z,2.80
2019-05-29T02:49:13.343Z,3.33
2019-05-29T02:51:41.818Z,3.10
2019-05-29T02:54:10.248Z,2.43
2019-05-29T02:56:42.303Z,2.40
2019-05-29T02:59:08.816Z,2.80
2019-05-29T03:01:37.248Z,2.63
2019-05-29T03:04:05.644Z,2.80
2019-05-29T03:06:34.508Z,2.57
2019-05-29T03:09:05.560Z,2.57
2019-05-29T03:11:34.050Z,2.47
2019-05-29T03:14:02.464Z,3.10
2019-05-29T03:16:32.863Z,2.17
2019-05-29T03:19:01.324Z,2.70
2019-05-29T03:21:30.744Z,2.10
2019-05-29T03:23:59.893Z,3.07
2019-05-29T03:26:30.640Z,2.37
2019-05-29T03:28:58.738Z,2.50
2019-05-29T03:31:30.832Z,3.17
2019-05-29T03:33:57.306Z,2.50
2019-05-29T03:36:28.355Z,2.70
2019-05-29T03:38:55.839Z,3.23
2019-05-29T03:41:24.252Z,3.00
2019-05-29T03:43:52.663Z,3.40
2019-05-29T03:46:31.680Z,3.70
2019-05-29T03:48:51.229Z,3.10
2019-05-29T03:51:19.640Z,3.53
2019-05-29T03:53:48.082Z,3.10
2019-05-29T03:56:16.496Z,2.80
2019-05-29T03:58:45.220Z,2.90
2019-05-29T04:01:13.647Z,3.30
2019-05-29T04:03:42.061Z,2.90
2019-05-29T04:06:10.487Z,3.30
2019-05-29T04:08:38.912Z,2.70
2019-05-29T04:11:08.130Z,3.00
2019-05-29T04:13:38.745Z,2.97
2019-05-29T04:16:09.793Z,3.13
2019-05-29T04:18:39.755Z,3.13
2019-05-29T04:21:10.776Z,4.30
2019-05-29T04:23:42.038Z,3.10
2019-05-29T04:26:13.651Z,4.17
2019-05-29T04:28:42.873Z,2.83
2019-05-29T04:31:11.273Z,5.30
2019-05-29T04:33:39.711Z,3.60
2019-05-29T04:36:08.118Z,4.30
2019-05-29T04:38:38.512Z,3.90
2019-05-29T04:41:06.671Z,3.10
2019-05-29T04:43:36.038Z,4.50
2019-05-29T04:46:05.309Z,3.97
2019-05-29T04:48:35.642Z,3.70
2019-05-29T04:51:03.870Z,3.60
2019-05-29T04:53:33.491Z,3.77
2019-05-29T04:56:02.274Z,3.60
2019-05-29T04:58:30.780Z,4.17
2019-05-29T05:00:59.702Z,3.80
2019-05-29T05:03:29.064Z,3.87
2019-05-29T05:05:57.795Z,3.40
2019-05-29T05:08:26.204Z,3.73
2019-05-29T05:10:54.623Z,3.93
2019-05-29T05:13:23.026Z,3.80
2019-05-29T05:15:53.227Z,4.20
2019-05-29T05:18:21.639Z,4.47
2019-05-29T05:20:50.092Z,4.30
2019-05-29T05:23:18.491Z,4.30
2019-05-29T05:25:46.999Z,4.43
2019-05-29T05:28:15.435Z,4.70
2019-05-29T05:30:43.915Z,4.07
2019-05-29T05:33:12.352Z,4.30
2019-05-29T05:35:41.088Z,4.10
2019-05-29T05:38:09.755Z,4.80
2019-05-29T05:40:41.056Z,4.17
2019-05-29T05:43:21.208Z,4.40
2019-05-29T05:45:39.206Z,4.30
2019-05-29T05:48:07.952Z,4.03
2019-05-29T05:50:37.277Z,3.40
2019-05-29T05:53:06.001Z,4.07
2019-05-29T05:55:35.498Z,3.67
2019-05-29T05:58:04.097Z,3.50
2019-05-29T06:00:35.830Z,3.60
2019-05-29T06:03:05.367Z,4.17
2019-05-29T06:05:34.015Z,3.13
2019-05-29T06:08:02.593Z,3.80
2019-05-29T06:10:32.040Z,3.90
2019-05-29T06:13:00.741Z,2.83
2019-05-29T06:15:29.189Z,3.27
2019-05-29T06:18:19.517Z,3.00
2019-05-29T06:20:27.767Z,2.53
2019-05-29T06:22:56.255Z,3.30
2019-05-29T06:25:25.931Z,3.17
2019-05-29T06:27:54.505Z,2.80
2019-05-29T06:30:23.316Z,3.10
2019-05-29T06:32:51.794Z,3.17
2019-05-29T06:35:20.262Z,3.50
2019-05-29T06:37:48.699Z,3.50
2019-05-29T06:40:31.963Z,3.30
2019-05-29T06:43:00.387Z,2.63
2019-05-29T06:45:35.734Z,2.93
2019-05-29T06:48:07.460Z,3.53
2019-05-29T06:50:37.253Z,3.20
2019-05-29T06:53:06.076Z,3.17
2019-05-29T06:55:35.750Z,2.70
2019-05-29T06:58:04.472Z,2.57
2019-05-29T07:00:35.706Z,2.20
2019-05-29T07:03:03.062Z,2.13
2019-05-29T07:05:31.590Z,2.03
2019-05-29T07:08:17.012Z,2.20
2019-05-29T07:10:30.218Z,1.97
2019-05-29T07:12:58.657Z,2.37
2019-05-29T07:15:27.102Z,1.63
2019-05-29T07:17:55.608Z,1.97
2019-05-29T07:20:24.152Z,1.60
2019-05-29T07:22:52.824Z,1.67
2019-05-29T07:25:21.247Z,1.50
2019-05-29T07:27:49.684Z,1.30
2019-05-29T07:30:18.518Z,2.37
2019-05-29T07:32:56.733Z,2.70
2019-05-29T07:35:17.185Z,2.00
2019-05-29T07:40:35.844Z,1.67
2019-05-29T07:43:04.562Z,2.50
2019-05-29T07:45:33.061Z,2.53
2019-05-29T07:48:01.490Z,2.00
2019-05-29T07:50:29.993Z,2.50
2019-05-29T07:52:58.479Z,1.77
2019-05-29T07:55:26.968Z,1.90
2019-05-29T07:57:55.436Z,1.83
2019-05-29T08:00:34.706Z,2.33
2019-05-29T08:02:54.372Z,2.57
2019-05-29T08:05:22.850Z,2.17
2019-05-29T08:07:51.298Z,2.07
2019-05-29T08:10:20.558Z,2.30
2019-05-29T08:12:54.314Z,2.30
2019-05-29T08:15:19.284Z,2.60
2019-05-29T08:17:48.219Z,2.00
2019-05-29T08:20:17.053Z,2.20
2019-05-29T08:22:46.419Z,1.87
2019-05-29T08:25:15.220Z,2.10
2019-05-29T08:27:44.767Z,2.10
2019-05-29T08:30:13.912Z,1.80
2019-05-29T08:32:43.512Z,2.27
2019-05-29T08:35:14.360Z,1.90
2019-05-29T08:37:42.876Z,2.90
2019-05-29T08:40:11.906Z,1.93
2019-05-29T08:42:41.073Z,2.30
2019-05-29T08:45:10.409Z,2.37
2019-05-29T08:47:38.834Z,1.50
2019-05-29T08:50:18.234Z,1.80
2019-05-29T08:52:38.041Z,2.47
2019-05-29T08:55:06.910Z,2.10
2019-05-29T08:57:35.345Z,2.23
2019-05-29T09:00:08.982Z,2.00
2019-05-29T09:02:37.414Z,1.73
2019-05-29T09:05:07.574Z,1.70
2019-05-29T09:07:36.008Z,1.50
2019-05-29T09:10:06.771Z,2.27
2019-05-29T09:12:35.246Z,2.00
2019-05-29T09:15:05.366Z,2.07
2019-05-29T09:17:34.612Z,1.90
2019-05-29T09:20:04.587Z,1.33
2019-05-29T09:22:33.023Z,1.67
2019-05-29T09:25:01.472Z,2.20
2019-05-29T09:27:29.943Z,1.70
2019-05-29T09:29:58.388Z,1.83
2019-05-29T09:32:48.668Z,1.80
2019-05-29T09:34:56.983Z,2.23
2019-05-29T09:37:25.453Z,2.40
2019-05-29T09:39:53.891Z,2.00
2019-05-29T09:42:23.606Z,3.50
2019-05-29T09:44:52.390Z,2.20
2019-05-29T09:47:22.224Z,2.43
2019-05-29T09:49:50.712Z,2.70
2019-05-29T09:52:19.145Z,2.40
2019-05-29T09:54:47.561Z,2.73
2019-05-29T09:57:15.997Z,1.90
2019-05-29T09:59:44.410Z,2.00
2019-05-29T10:02:13.180Z,2.27
2019-05-29T10:04:41.593Z,2.60
2019-05-29T10:07:13.077Z,2.43
2019-05-29T10:09:41.540Z,2.20
2019-05-29T10:12:09.973Z,2.40
2019-05-29T10:14:38.385Z,2.40
2019-05-29T10:17:11.337Z,2.50
2019-05-29T10:19:37.016Z,2.60
2019-05-29T10:22:05.869Z,2.77
2019-05-29T10:24:34.363Z,2.67
2019-05-29T10:27:03.583Z,2.23
2019-05-29T10:29:32.998Z,2.23
2019-05-29T10:32:01.431Z,2.27
2019-05-29T10:34:29.868Z,2.70
2019-05-29T10:36:58.281Z,2.93
2019-05-29T10:39:26.717Z,2.80
2019-05-29T10:41:55.123Z,2.77
2019-05-29T10:44:23.554Z,2.23
2019-05-29T10:46:54.134Z,1.90
2019-05-29T10:49:22.147Z,2.10
2019-05-29T10:52:07.637Z,2.20
2019-05-29T10:54:20.726Z,2.07
2019-05-29T10:56:50.683Z,1.87
2019-05-29T10:59:19.351Z,2.27
2019-05-29T11:01:49.084Z,2.63
2019-05-29T11:04:17.763Z,2.30
2019-05-29T11:06:46.669Z,2.50
2019-05-29T11:09:16.305Z,3.07
2019-05-29T11:11:46.141Z,3.10
2019-05-29T11:14:14.778Z,2.20
2019-05-29T11:16:43.404Z,2.70
2019-05-29T11:19:11.816Z,1.57
2019-05-29T11:21:40.231Z,1.97
2019-05-29T11:24:08.662Z,2.30
2019-05-29T11:26:37.088Z,2.60
2019-05-29T11:29:05.716Z,2.53
2019-05-29T11:31:34.148Z,3.23
2019-05-29T11:34:02.637Z,2.83
2019-05-29T11:36:31.065Z,2.60
2019-05-29T11:39:05.593Z,3.97
2019-05-29T11:41:29.649Z,2.63
2019-05-29T11:43:58.970Z,3.07
2019-05-29T11:46:27.662Z,3.30
2019-05-29T11:48:57.315Z,2.73
2019-05-29T11:51:26.082Z,3.10
2019-05-29T11:53:55.420Z,2.80
2019-05-29T11:56:24.001Z,2.97
2019-05-29T11:58:52.743Z,3.10
2019-05-29T12:01:21.474Z,3.40
2019-05-29T12:04:13.598Z,2.90
2019-05-29T12:06:20.059Z,2.87
2019-05-29T12:08:48.503Z,2.60
2019-05-29T12:11:16.987Z,3.00
2019-05-29T12:13:45.479Z,2.20
2019-05-29T12:16:13.904Z,2.40
2019-05-29T12:18:42.347Z,2.90
2019-05-29T12:21:10.784Z,2.57
2019-05-29T12:23:39.200Z,3.07
2019-05-29T12:26:21.468Z,2.90
2019-05-29T12:28:37.815Z,3.07
2019-05-29T12:31:06.300Z,3.53
2019-05-29T12:33:34.733Z,2.90
2019-05-29T12:36:03.438Z,2.80
2019-05-29T12:38:31.929Z,3.50
2019-05-29T12:41:01.675Z,3.20
2019-05-29T12:43:30.389Z,3.57
2019-05-29T12:46:00.103Z,3.80
2019-05-29T12:48:28.691Z,3.83
2019-05-29T12:50:58.228Z,3.20
2019-05-29T12:53:30.810Z,2.87
2019-05-29T12:56:16.823Z,3.50
2019-05-29T12:58:45.240Z,4.60
2019-05-29T13:01:13.683Z,4.07
2019-05-29T13:03:45.261Z,3.60
2019-05-29T13:06:12.244Z,3.20
2019-05-29T13:08:40.651Z,3.50
2019-05-29T13:11:09.067Z,3.80
2019-05-29T13:13:37.508Z,4.20
2019-05-29T13:16:05.958Z,3.60
2019-05-29T13:18:34.373Z,3.83
2019-05-29T13:21:03.224Z,4.00
2019-05-29T13:23:44.171Z,3.47
2019-05-29T13:26:01.788Z,4.43
2019-05-29T13:28:30.236Z,3.07
2019-05-29T13:30:59.765Z,4.20
2019-05-29T13:33:28.537Z,3.80
2019-05-29T13:35:58.057Z,3.80
2019-05-29T13:38:26.707Z,3.93
2019-05-29T13:40:56.229Z,4.60
2019-05-29T13:43:24.816Z,4.13
2019-05-29T13:45:53.224Z,4.00
2019-05-29T13:48:23.475Z,3.40
2019-05-29T13:50:51.866Z,2.20
2019-05-29T13:53:20.304Z,2.70
2019-05-29T13:55:48.730Z,2.60
2019-05-29T13:58:17.150Z,3.07
2019-05-29T14:00:45.578Z,2.10
2019-05-29T14:03:14.011Z,1.83
2019-05-29T14:05:42.433Z,2.33
2019-05-29T14:08:10.848Z,2.60
2019-05-29T14:10:39.406Z,2.40
2019-05-29T14:13:09.198Z,2.47
2019-05-29T14:15:37.949Z,2.20
2019-05-29T14:18:07.071Z,3.50
2019-05-29T14:20:35.788Z,3.43
2019-05-29T14:23:05.330Z,2.73
2019-05-29T14:25:33.965Z,3.20
2019-05-29T14:28:02.684Z,2.63
2019-05-29T14:30:31.359Z,2.40
2019-05-29T14:32:59.786Z,2.93
2019-05-29T14:35:28.198Z,2.80
2019-05-29T14:37:56.639Z,2.57
2019-05-29T14:40:25.066Z,2.83
2019-05-29T14:42:53.498Z,3.13
2019-05-29T14:45:21.955Z,3.30
2019-05-29T14:47:50.386Z,3.20
2019-05-29T14:50:18.810Z,3.73
2019-05-29T14:52:47.235Z,3.40
2019-05-29T14:55:18.265Z,2.53
2019-05-29T14:57:45.858Z,2.10
2019-05-29T15:00:24.737Z,1.33
2019-05-29T15:02:46.551Z,1.97
2019-05-29T15:05:15.329Z,1.27
2019-05-29T15:07:43.789Z,1.30
2019-05-29T15:10:25.184Z,2.00
2019-05-29T15:12:44.144Z,1.30
2019-05-29T15:15:14.255Z,1.30
2019-05-29T15:17:43.378Z,1.20
2019-05-29T15:20:12.959Z,1.40
2019-05-29T15:22:42.359Z,2.60
2019-05-29T15:25:19.935Z,1.62
2019-05-29T15:27:41.191Z,1.30
2019-05-29T15:30:11.331Z,1.12
2019-05-29T15:32:40.473Z,1.30
2019-05-29T15:35:14.490Z,1.42
2019-05-29T15:37:40.635Z,1.10
2019-05-29T15:40:10.943Z,1.30
2019-05-29T15:42:39.807Z,1.22
2019-05-29T15:45:10.074Z,1.22
2019-05-29T15:47:38.620Z,1.87
2019-05-29T15:50:13.384Z,2.30
2019-05-29T15:52:42.221Z,2.30
2019-05-29T15:55:27.302Z,2.17
2019-05-29T15:57:40.944Z,2.67
2019-05-29T16:00:11.523Z,2.67
2019-05-29T16:02:40.170Z,2.77
2019-05-29T16:05:11.268Z,3.30
2019-05-29T16:07:39.924Z,3.70
2019-05-29T16:10:14.171Z,3.67
2019-05-29T16:12:40.462Z,3.90
2019-05-29T16:15:11.085Z,3.10
2019-05-29T16:17:39.950Z,3.00
2019-05-29T16:20:12.423Z,2.90
2019-05-29T16:22:40.912Z,2.93
2019-05-29T16:25:10.749Z,3.40
2019-05-29T16:27:39.818Z,3.67
2019-05-29T16:30:09.289Z,3.40
2019-05-29T16:32:37.696Z,3.40
2019-05-29T16:35:08.542Z,4.30
2019-05-29T16:37:36.984Z,3.90
2019-05-29T16:40:14.325Z,3.90
2019-05-29T16:42:43.218Z,3.37
2019-05-29T16:45:12.469Z,3.43
2019-05-29T16:47:40.903Z,3.63
2019-05-29T16:50:10.059Z,4.40
2019-05-29T16:52:38.761Z,4.80
2019-05-29T16:55:07.835Z,4.90
2019-05-29T16:57:36.255Z,5.30
2019-05-29T17:00:07.821Z,4.93
2019-05-29T17:02:36.235Z,5.13
2019-05-29T17:05:08.705Z,4.93
2019-05-29T17:07:37.118Z,3.97
2019-05-29T17:10:09.344Z,5.30
2019-05-29T17:12:37.757Z,5.30
2019-05-29T17:15:11.201Z,5.30
2019-05-29T17:17:39.716Z,5.40
2019-05-29T17:20:09.572Z,5.50
2019-05-29T17:22:38.090Z,6.17
2019-05-29T17:25:07.080Z,5.80
2019-05-29T17:27:35.491Z,5.50
2019-05-29T17:30:05.471Z,6.40
2019-05-29T17:32:33.910Z,6.00
2019-05-29T17:35:02.484Z,5.93
2019-05-29T17:37:30.937Z,5.37
2019-05-29T17:39:59.353Z,5.20
2019-05-29T17:42:27.788Z,5.80
2019-05-29T17:44:56.224Z,4.93
2019-05-29T17:47:25.670Z,6.00
2019-05-29T17:49:54.353Z,6.03
2019-05-29T17:52:23.840Z,6.20
2019-05-29T17:54:52.584Z,6.33
2019-05-29T17:57:21.949Z,5.63
2019-05-29T17:59:50.512Z,7.00
2019-05-29T18:02:20.104Z,6.90
2019-05-29T18:04:48.749Z,6.83
2019-05-29T18:07:18.393Z,6.47
2019-05-29T18:09:47.005Z,6.87
2019-05-29T18:12:16.996Z,7.03
2019-05-29T18:14:45.712Z,8.20
2019-05-29T18:17:14.152Z,7.47
2019-05-29T18:19:42.652Z,7.60
2019-05-29T18:22:11.377Z,8.10
2019-05-29T18:24:39.810Z,8.00
2019-05-29T18:27:08.228Z,8.97
2019-05-29T18:29:36.661Z,10.73
2019-05-29T18:32:05.083Z,9.10
2019-05-29T18:34:33.805Z,9.20
2019-05-29T18:37:02.237Z,10.23
2019-05-29T18:39:30.653Z,9.37
2019-05-29T18:41:59.098Z,8.87
2019-05-29T18:44:28.863Z,10.20
2019-05-29T18:46:57.626Z,9.00
2019-05-29T18:49:26.476Z,8.57
2019-05-29T18:51:54.939Z,8.60
2019-05-29T18:54:23.754Z,9.07
2019-05-29T18:57:13.762Z,9.50
2019-05-29T18:59:23.272Z,8.93
2019-05-29T19:01:51.786Z,8.70
2019-05-29T19:04:21.412Z,9.23
2019-05-29T19:06:50.226Z,29.57
2019-05-29T19:09:18.930Z,15.27
2019-05-29T19:11:47.372Z,10.57
2019-05-29T19:14:15.808Z,10.77
2019-05-29T19:16:44.241Z,8.30
2019-05-29T19:19:12.656Z,9.10
2019-05-29T19:21:41.103Z,9.27
2019-05-29T19:24:09.517Z,9.10
2019-05-29T19:26:37.961Z,10.57
2019-05-29T19:29:06.377Z,9.30
2019-05-29T19:31:34.807Z,10.07
2019-05-29T19:34:03.234Z,9.10
2019-05-29T19:36:31.867Z,9.30
2019-05-29T19:39:00.466Z,9.97
2019-05-29T19:41:30.059Z,9.70
2019-05-29T19:43:58.663Z,9.70
2019-05-29T19:46:27.107Z,9.73
2019-05-29T19:48:55.602Z,10.37
2019-05-29T19:51:25.247Z,9.47
2019-05-29T19:53:53.899Z,9.77
2019-05-29T19:56:22.326Z,9.90
2019-05-29T19:58:50.762Z,8.90
2019-05-29T20:01:30.790Z,9.70
2019-05-29T20:03:49.337Z,9.83
2019-05-29T20:06:17.775Z,9.97
2019-05-29T20:08:46.388Z,10.07
2019-05-29T20:11:14.832Z,9.90
2019-05-29T20:13:43.256Z,12.40
2019-05-29T20:16:11.697Z,12.50
2019-05-29T20:18:40.151Z,14.07
2019-05-29T20:21:08.641Z,11.93
2019-05-29T20:23:37.073Z,12.20
2019-05-29T20:26:05.493Z,12.30
2019-05-29T20:28:34.255Z,12.80
2019-05-29T20:31:02.720Z,11.97
2019-05-29T20:33:32.384Z,13.13
2019-05-29T20:36:00.992Z,12.50
2019-05-29T20:38:29.415Z,12.00
2019-05-29T20:40:57.837Z,12.30
2019-05-29T20:43:26.269Z,12.30
2019-05-29T20:45:54.702Z,12.20
2019-05-29T20:48:23.129Z,12.20
2019-05-29T20:50:51.564Z,15.03
2019-05-29T20:53:19.994Z,17.83
2019-05-29T20:55:48.429Z,12.03
2019-05-29T20:58:24.433Z,12.93
2019-05-29T21:00:47.027Z,13.47
2019-05-29T21:03:15.543Z,12.67
2019-05-29T21:05:43.977Z,12.87
2019-05-29T21:08:12.397Z,12.70
2019-05-29T21:10:42.043Z,12.33
2019-05-29T21:13:10.956Z,16.90
2019-05-29T21:15:39.724Z,13.00
2019-05-29T21:18:08.188Z,12.50
2019-05-29T21:20:36.653Z,11.40
2019-05-29T21:23:05.216Z,12.30
2019-05-29T21:25:34.575Z,10.87
2019-05-29T21:28:03.816Z,10.50
2019-05-29T21:30:32.238Z,13.27
2019-05-29T21:33:00.680Z,10.50
2019-05-29T21:35:29.101Z,12.23
2019-05-29T21:37:57.525Z,12.10
2019-05-29T21:40:25.970Z,10.83
2019-05-29T21:42:54.385Z,10.73
2019-05-29T21:45:22.837Z,10.70
2019-05-29T21:47:51.260Z,11.30
2019-05-29T21:50:19.706Z,10.30
2019-05-29T21:52:48.138Z,10.30
2019-05-29T21:55:16.998Z,12.30
2019-05-29T21:57:48.420Z,9.60
2019-05-29T22:00:37.876Z,8.50
2019-05-29T22:03:06.932Z,8.97
2019-05-29T22:05:35.365Z,9.47
2019-05-29T22:08:03.850Z,8.63
2019-05-29T22:10:32.381Z,10.97
2019-05-29T22:13:01.277Z,11.77
2019-05-29T22:15:29.700Z,13.00
2019-05-29T22:17:59.198Z,10.77
2019-05-29T22:20:28.067Z,9.20
2019-05-29T22:22:57.194Z,10.30
2019-05-29T22:25:25.692Z,9.20
2019-05-29T22:27:55.469Z,9.87
2019-05-29T22:30:24.108Z,10.10
2019-05-29T22:32:53.291Z,8.77
2019-05-29T22:35:21.960Z,9.03
2019-05-29T22:37:51.446Z,9.73
2019-05-29T22:40:20.244Z,9.03
2019-05-29T22:42:48.676Z,9.87
2019-05-29T22:45:17.844Z,10.23
2019-05-29T22:47:46.593Z,9.67
2019-05-29T22:50:15.457Z,11.17
2019-05-29T22:52:43.888Z,10.60
2019-05-29T22:55:12.556Z,9.30
2019-05-29T22:57:40.992Z,9.90
2019-05-29T23:00:10.233Z,10.00
2019-05-29T23:02:38.671Z,10.50
2019-05-29T23:05:07.741Z,10.53
2019-05-29T23:07:36.174Z,11.20
2019-05-29T23:10:09.257Z,10.57
2019-05-29T23:12:37.678Z,10.50
2019-05-29T23:15:07.877Z,10.97
2019-05-29T23:17:36.306Z,10.13
2019-05-29T23:20:09.425Z,11.60
2019-05-29T23:22:37.931Z,10.90
2019-05-29T23:25:07.096Z,10.40
2019-05-29T23:27:35.950Z,10.70
2019-05-29T23:30:08.875Z,10.23
2019-05-29T23:32:37.309Z,11.30
2019-05-29T23:35:07.197Z,10.07
2019-05-29T23:37:35.618Z,10.77
2019-05-29T23:40:06.586Z,10.70
2019-05-29T23:42:35.013Z,11.60
2019-05-29T23:45:05.386Z,10.70
2019-05-29T23:47:33.799Z,9.50
2019-05-29T23:50:03.192Z,9.60
2019-05-29T23:52:32.541Z,9.50
2019-05-29T23:55:01.939Z,10.20
2019-05-29T23:57:30.570Z,10.10
